createdAt,value
2022-08-26T00:00:58.893Z,12.73
2022-08-26T00:03:25.430Z,14.20
2022-08-26T00:05:51.995Z,22.27
2022-08-26T00:08:18.786Z,15.32
2022-08-26T00:10:45.359Z,14.00
2022-08-26T00:13:11.950Z,18.58
2022-08-26T00:15:38.741Z,17.42
2022-08-26T00:18:05.401Z,20.83
2022-08-26T00:20:48.710Z,15.48
2022-08-26T00:23:15.430Z,15.23
2022-08-26T00:25:42.816Z,21.30
2022-08-26T00:28:09.421Z,18.27
2022-08-26T00:30:37.604Z,19.88
2022-08-26T00:33:05.571Z,17.38
2022-08-26T00:35:33.532Z,14.02
2022-08-26T00:38:00.506Z,21.13
2022-08-26T00:40:32.238Z,22.42
2022-08-26T00:42:59.759Z,20.52
2022-08-26T00:45:26.448Z,15.82
2022-08-26T00:47:53.947Z,12.88
2022-08-26T00:50:22.201Z,18.67
2022-08-26T00:52:48.731Z,16.33
2022-08-26T00:55:20.363Z,14.95
2022-08-26T00:57:47.487Z,14.57
2022-08-26T01:00:15.467Z,18.00
2022-08-26T01:02:43.285Z,17.90
2022-08-26T01:05:13.469Z,16.67
2022-08-26T01:07:40.085Z,12.65
2022-08-26T01:10:08.059Z,18.17
2022-08-26T01:12:36.865Z,11.45
2022-08-26T01:15:07.859Z,16.13
2022-08-26T01:17:37.469Z,17.98
2022-08-26T01:20:06.929Z,15.20
2022-08-26T01:22:52.276Z,16.27
2022-08-26T01:25:19.667Z,17.83
2022-08-26T01:27:46.571Z,19.23
2022-08-26T01:30:15.755Z,15.00
2022-08-26T01:32:42.434Z,15.23
2022-08-26T01:35:09.577Z,17.98
2022-08-26T01:37:36.877Z,24.95
2022-08-26T01:40:06.301Z,14.93
2022-08-26T01:42:32.851Z,16.35
2022-08-26T01:45:06.787Z,17.08
2022-08-26T01:47:33.692Z,14.88
2022-08-26T01:50:01.370Z,12.90
2022-08-26T01:52:30.270Z,13.25
2022-08-26T01:54:57.264Z,23.73
2022-08-26T01:57:24.812Z,13.35
2022-08-26T01:59:51.717Z,14.05
2022-08-26T02:02:18.255Z,18.58
2022-08-26T02:04:49.210Z,14.32
2022-08-26T02:07:16.729Z,14.88
2022-08-26T02:09:44.914Z,14.27
2022-08-26T02:12:11.948Z,15.40
2022-08-26T02:14:43.880Z,15.65
2022-08-26T02:17:10.981Z,16.05
2022-08-26T02:19:39.071Z,14.25
2022-08-26T02:22:06.364Z,11.07
2022-08-26T02:24:51.852Z,15.18
2022-08-26T02:27:20.555Z,15.98
2022-08-26T02:29:48.679Z,15.25
2022-08-26T02:32:18.509Z,13.65
2022-08-26T02:34:45.625Z,14.30
2022-08-26T02:37:13.047Z,14.32
2022-08-26T02:39:39.940Z,11.77
2022-08-26T02:42:06.595Z,15.68
2022-08-26T02:44:33.551Z,17.10
2022-08-26T02:47:00.240Z,14.65
2022-08-26T02:49:26.892Z,13.23
2022-08-26T02:51:53.375Z,14.55
2022-08-26T02:54:21.352Z,15.38
2022-08-26T02:56:48.229Z,10.20
2022-08-26T02:59:15.524Z,12.48
2022-08-26T03:01:42.417Z,12.13
2022-08-26T03:04:10.025Z,12.07
2022-08-26T03:06:37.227Z,14.25
2022-08-26T03:09:04.499Z,20.63
2022-08-26T03:11:33.129Z,10.63
2022-08-26T03:14:00.699Z,12.50
2022-08-26T03:16:36.185Z,10.27
2022-08-26T03:19:03.946Z,10.38
2022-08-26T03:21:30.463Z,12.77
2022-08-26T03:23:58.749Z,11.60
2022-08-26T03:26:25.368Z,13.13
2022-08-26T03:29:10.528Z,12.05
2022-08-26T03:31:37.135Z,13.75
2022-08-26T03:34:04.365Z,11.50
2022-08-26T03:36:30.979Z,10.32
2022-08-26T03:38:58.199Z,13.50
2022-08-26T03:41:24.709Z,11.32
2022-08-26T03:43:52.311Z,10.38
2022-08-26T03:46:19.426Z,10.88
2022-08-26T03:48:45.938Z,12.68
2022-08-26T03:51:13.305Z,16.50
2022-08-26T03:53:39.806Z,13.20
2022-08-26T03:56:06.750Z,12.80
2022-08-26T03:58:33.321Z,12.68
2022-08-26T04:00:59.845Z,12.07
2022-08-26T04:03:44.987Z,13.55
2022-08-26T04:06:11.619Z,8.50
2022-08-26T04:08:38.138Z,7.43
2022-08-26T04:11:05.270Z,11.13
2022-08-26T04:13:32.440Z,8.35
2022-08-26T04:15:59.395Z,12.63
2022-08-26T04:18:31.459Z,13.48
2022-08-26T04:21:04.016Z,15.15
2022-08-26T04:23:34.512Z,11.32
2022-08-26T04:26:14.422Z,13.23
2022-08-26T04:28:40.890Z,11.27
2022-08-26T04:31:10.466Z,14.27
2022-08-26T04:33:41.610Z,10.40
2022-08-26T04:36:08.479Z,11.52
2022-08-26T04:38:35.038Z,13.73
2022-08-26T04:41:01.660Z,8.35
2022-08-26T04:43:30.732Z,9.45
2022-08-26T04:45:58.959Z,8.10
2022-08-26T04:48:27.591Z,9.20
2022-08-26T04:50:54.135Z,7.70
2022-08-26T04:53:21.528Z,11.82
2022-08-26T04:55:48.518Z,8.63
2022-08-26T04:58:18.677Z,9.88
2022-08-26T05:00:45.826Z,16.42
2022-08-26T05:03:12.386Z,11.05
2022-08-26T05:05:42.560Z,11.82
2022-08-26T05:08:11.295Z,8.15
2022-08-26T05:10:41.929Z,9.00
2022-08-26T05:13:11.009Z,8.70
2022-08-26T05:15:38.209Z,10.13
2022-08-26T05:18:05.040Z,9.13
2022-08-26T05:20:35.271Z,12.95
2022-08-26T05:23:01.886Z,12.20
2022-08-26T05:25:28.431Z,8.10
2022-08-26T05:27:55.130Z,13.95
2022-08-26T05:30:21.662Z,12.30
2022-08-26T05:32:52.519Z,9.27
2022-08-26T05:35:21.865Z,10.05
2022-08-26T05:37:49.403Z,10.70
2022-08-26T05:40:15.948Z,9.90
2022-08-26T05:42:42.885Z,12.48
2022-08-26T05:45:09.509Z,10.02
2022-08-26T05:47:36.067Z,12.85
2022-08-26T05:50:05.595Z,12.15
2022-08-26T05:52:35.240Z,7.32
2022-08-26T05:55:01.703Z,13.38
2022-08-26T05:57:28.616Z,10.15
2022-08-26T05:59:56.621Z,9.02
2022-08-26T06:02:23.354Z,8.35
2022-08-26T06:04:49.983Z,9.68
2022-08-26T06:07:18.535Z,9.82
2022-08-26T06:09:46.483Z,9.25
2022-08-26T06:12:13.495Z,8.00
2022-08-26T06:14:41.691Z,9.98
2022-08-26T06:17:09.619Z,8.55
2022-08-26T06:19:36.227Z,9.02
2022-08-26T06:22:27.976Z,9.73
2022-08-26T06:25:13.135Z,9.13
2022-08-26T06:27:39.604Z,9.63
2022-08-26T06:30:06.575Z,9.30
2022-08-26T06:32:33.577Z,16.13
2022-08-26T06:35:00.217Z,12.50
2022-08-26T06:37:28.016Z,11.30
2022-08-26T06:39:55.807Z,5.85
2022-08-26T06:42:24.143Z,13.65
2022-08-26T06:44:50.722Z,10.57
2022-08-26T06:47:17.231Z,10.60
2022-08-26T06:49:44.320Z,8.60
2022-08-26T06:52:11.334Z,7.68
2022-08-26T06:54:38.889Z,10.65
2022-08-26T06:57:05.557Z,8.75
2022-08-26T06:59:33.661Z,8.32
2022-08-26T07:02:01.026Z,11.68
2022-08-26T07:04:28.973Z,12.23
2022-08-26T07:06:55.612Z,10.85
2022-08-26T07:09:22.979Z,10.60
2022-08-26T07:11:49.521Z,10.23
2022-08-26T07:14:16.901Z,11.45
2022-08-26T07:16:48.014Z,6.88
2022-08-26T07:19:14.588Z,7.05
2022-08-26T07:21:43.376Z,17.73
2022-08-26T07:24:11.044Z,7.82
2022-08-26T07:26:37.988Z,6.80
2022-08-26T07:29:04.461Z,12.95
2022-08-26T07:31:36.007Z,9.63
2022-08-26T07:34:07.713Z,9.95
2022-08-26T07:36:34.967Z,5.15
2022-08-26T07:39:01.536Z,11.77
2022-08-26T07:43:56.794Z,9.52
2022-08-26T07:46:27.508Z,7.63
2022-08-26T07:48:56.955Z,14.98
2022-08-26T07:51:23.598Z,11.60
2022-08-26T07:53:52.841Z,11.20
2022-08-26T07:56:19.969Z,9.02
2022-08-26T07:58:52.421Z,6.80
2022-08-26T08:01:21.207Z,10.77
2022-08-26T08:04:03.152Z,16.05
2022-08-26T08:06:36.463Z,7.70
2022-08-26T08:09:08.215Z,6.50
2022-08-26T08:11:37.975Z,9.45
2022-08-26T08:14:08.426Z,8.38
2022-08-26T08:16:46.884Z,9.43
2022-08-26T08:19:19.210Z,7.95
2022-08-26T08:21:51.285Z,14.85
2022-08-26T08:27:08.320Z,10.50
2022-08-26T08:29:37.609Z,16.23
2022-08-26T08:32:05.681Z,7.10
2022-08-26T08:37:08.709Z,8.50
2022-08-26T08:39:37.308Z,11.55
2022-08-26T08:42:23.775Z,7.00
2022-08-26T08:44:51.973Z,10.00
2022-08-26T08:47:29.510Z,8.20
2022-08-26T08:49:57.940Z,10.77
2022-08-26T08:52:43.058Z,8.05
2022-08-26T08:55:11.037Z,8.32
2022-08-26T08:58:06.298Z,10.80
2022-08-26T09:01:01.507Z,7.18
2022-08-26T09:03:53.991Z,9.43
2022-08-26T09:06:23.883Z,10.02
2022-08-26T09:08:54.335Z,14.68
2022-08-26T09:11:36.330Z,7.00
2022-08-26T09:14:09.556Z,8.88
2022-08-26T09:17:09.493Z,9.23
2022-08-26T09:19:36.277Z,10.02
2022-08-26T09:25:00.321Z,8.15
2022-08-26T09:27:54.906Z,8.15
2022-08-26T09:30:45.509Z,9.65
2022-08-26T09:33:24.718Z,7.50
2022-08-26T09:36:11.632Z,15.48
2022-08-26T09:38:50.780Z,12.10
2022-08-26T09:41:50.663Z,8.90
2022-08-26T09:44:18.961Z,9.88
2022-08-26T09:54:03.787Z,8.25
2022-08-26T10:00:33.880Z,7.90
2022-08-26T10:03:01.425Z,5.57
2022-08-26T10:05:43.554Z,6.20
2022-08-26T10:08:25.680Z,8.70
2022-08-26T10:10:58.034Z,6.53
2022-08-26T10:13:34.333Z,4.68
2022-08-26T10:16:10.799Z,7.13
2022-08-26T10:18:40.177Z,6.53
2022-08-26T10:21:35.523Z,7.18
2022-08-26T10:24:02.522Z,6.88
2022-08-26T10:26:39.953Z,6.20
2022-08-26T10:29:31.586Z,11.40
2022-08-26T10:32:04.477Z,5.75
2022-08-26T10:34:40.398Z,5.70
2022-08-26T10:37:33.290Z,8.18
2022-08-26T10:40:01.987Z,4.38
2022-08-26T10:42:54.139Z,12.23
2022-08-26T10:45:25.458Z,9.73
2022-08-26T10:47:54.568Z,11.27
2022-08-26T10:50:30.895Z,6.10
2022-08-26T10:53:16.518Z,6.38
2022-08-26T10:56:01.955Z,5.80
2022-08-26T10:58:44.616Z,4.82
2022-08-26T11:01:44.138Z,7.82
2022-08-26T11:04:13.687Z,8.30
2022-08-26T11:06:50.647Z,7.30
2022-08-26T11:09:36.535Z,5.55
2022-08-26T11:12:10.057Z,5.25
2022-08-26T11:14:41.024Z,6.80
2022-08-26T11:17:13.068Z,6.47
2022-08-26T11:20:00.325Z,12.27
2022-08-26T11:22:32.198Z,10.10
2022-08-26T11:24:59.205Z,6.40
2022-08-26T11:27:29.244Z,2.80
2022-08-26T11:30:10.908Z,6.60
2022-08-26T11:32:38.256Z,3.15
2022-08-26T11:35:24.843Z,5.90
2022-08-26T11:38:01.633Z,10.63
2022-08-26T11:40:37.558Z,10.70
2022-08-26T11:43:10.204Z,3.25
2022-08-26T12:32:37.393Z,5.10
2022-08-26T12:38:56.502Z,3.55
2022-08-26T12:59:31.840Z,2.60
2022-08-26T13:05:46.857Z,5.00
2022-08-26T13:11:32.345Z,8.00
2022-08-26T13:14:10.557Z,7.18
2022-08-26T13:17:03.784Z,5.13
2022-08-26T13:19:41.586Z,4.25
2022-08-26T13:22:14.904Z,7.35
2022-08-26T13:30:00.140Z,4.80
2022-08-26T13:32:27.725Z,7.22
2022-08-26T13:34:54.646Z,4.20
2022-08-26T13:37:34.079Z,5.13
2022-08-26T13:40:01.384Z,7.55
2022-08-26T13:42:27.977Z,7.47
2022-08-26T13:45:01.663Z,10.40
2022-08-26T13:47:28.851Z,6.45
2022-08-26T13:49:56.469Z,9.20
2022-08-26T13:52:30.374Z,10.55
2022-08-26T13:55:10.172Z,9.63
2022-08-26T13:57:37.061Z,6.30
2022-08-26T14:00:05.802Z,9.13
2022-08-26T14:08:33.373Z,7.57
2022-08-26T14:11:00.246Z,9.20
2022-08-26T14:13:26.932Z,7.10
2022-08-26T14:15:53.879Z,9.23
2022-08-26T14:18:26.602Z,7.85
2022-08-26T14:20:55.345Z,7.82
2022-08-26T14:24:00.813Z,7.18
2022-08-26T14:26:35.445Z,3.90
2022-08-26T14:29:06.202Z,7.57
2022-08-26T14:34:19.340Z,7.72
2022-08-26T14:36:52.250Z,7.38
2022-08-26T14:39:21.631Z,11.05
2022-08-26T14:41:53.881Z,5.07
2022-08-26T14:44:21.632Z,8.18
2022-08-26T14:46:49.683Z,9.02
2022-08-26T14:49:16.920Z,7.65
2022-08-26T14:51:46.918Z,4.82
2022-08-26T14:54:13.959Z,7.28
2022-08-26T14:57:18.512Z,9.98
2022-08-26T14:59:49.702Z,8.77
2022-08-26T15:02:32.429Z,5.63
2022-08-26T15:05:00.328Z,6.30
2022-08-26T15:07:27.309Z,7.82
2022-08-26T15:09:53.994Z,7.07
2022-08-26T15:12:21.998Z,4.50
2022-08-26T15:14:48.698Z,4.40
2022-08-26T15:17:15.324Z,6.10
2022-08-26T15:19:41.962Z,5.18
2022-08-26T15:22:08.529Z,5.07
2022-08-26T15:24:35.368Z,4.10
2022-08-26T15:27:02.004Z,6.43
2022-08-26T15:29:28.734Z,8.82
2022-08-26T15:31:57.635Z,3.70
2022-08-26T15:34:24.524Z,5.72
2022-08-26T15:36:51.222Z,5.10
2022-08-26T15:39:19.030Z,3.17
2022-08-26T15:41:45.808Z,2.47
2022-08-26T15:44:12.554Z,5.75
2022-08-26T15:46:39.399Z,9.85
2022-08-26T15:49:06.195Z,4.55
2022-08-26T15:51:34.120Z,5.15
2022-08-26T15:54:02.370Z,3.42
2022-08-26T15:56:31.698Z,3.95
2022-08-26T15:58:58.520Z,4.40
2022-08-26T16:01:27.326Z,4.05
2022-08-26T16:03:54.774Z,3.47
2022-08-26T16:06:22.468Z,2.63
2022-08-26T16:08:50.280Z,11.95
2022-08-26T16:11:19.072Z,2.72
2022-08-26T16:13:46.116Z,4.10
2022-08-26T16:16:12.930Z,7.90
2022-08-26T16:18:39.639Z,6.78
2022-08-26T16:21:13.515Z,5.90
2022-08-26T16:23:40.772Z,7.30
2022-08-26T16:26:18.887Z,3.88
2022-08-26T16:28:45.544Z,7.82
2022-08-26T16:31:12.199Z,3.85
2022-08-26T16:33:39.032Z,4.95
2022-08-26T16:36:05.940Z,5.88
2022-08-26T16:38:32.572Z,2.55
2022-08-26T16:40:59.536Z,3.05
2022-08-26T16:43:26.204Z,3.88
2022-08-26T16:45:52.912Z,3.28
2022-08-26T16:48:19.834Z,13.13
2022-08-26T16:50:46.474Z,6.30
2022-08-26T16:55:39.771Z,6.35
2022-08-26T16:58:06.463Z,5.60
2022-08-26T17:00:33.143Z,8.63
2022-08-26T17:03:00.295Z,4.80
2022-08-26T17:05:27.954Z,3.85
2022-08-26T17:07:55.458Z,10.00
2022-08-26T17:10:22.329Z,6.90
2022-08-26T17:12:49.165Z,4.60
2022-08-26T17:15:15.830Z,2.85
2022-08-26T17:17:42.505Z,3.88
2022-08-26T17:20:10.175Z,7.63
2022-08-26T17:22:42.474Z,6.28
2022-08-26T17:25:13.654Z,4.03
2022-08-26T17:27:41.011Z,8.45
2022-08-26T17:30:07.887Z,8.25
2022-08-26T17:32:34.530Z,6.70
2022-08-26T17:35:01.377Z,4.47
2022-08-26T17:37:28.412Z,9.18
2022-08-26T17:39:55.085Z,7.13
2022-08-26T17:42:21.714Z,6.35
2022-08-26T17:45:00.258Z,3.88
2022-08-26T17:47:26.866Z,8.95
2022-08-26T17:49:53.540Z,4.22
2022-08-26T17:52:20.246Z,10.95
2022-08-26T17:54:46.980Z,8.40
2022-08-26T17:57:13.598Z,8.32
2022-08-26T17:59:40.931Z,5.35
2022-08-26T18:02:07.632Z,6.55
2022-08-26T18:04:34.300Z,3.65
2022-08-26T18:07:01.439Z,3.60
2022-08-26T18:09:29.759Z,7.78
2022-08-26T18:11:56.388Z,9.35
2022-08-26T18:14:23.016Z,5.22
2022-08-26T18:16:51.182Z,6.72
2022-08-26T18:19:17.863Z,7.60
2022-08-26T18:21:44.630Z,6.70
2022-08-26T18:24:14.057Z,3.60
2022-08-26T18:26:41.193Z,4.70
2022-08-26T18:29:07.917Z,7.45
2022-08-26T18:31:34.471Z,4.15
2022-08-26T18:34:01.529Z,5.03
2022-08-26T18:36:29.070Z,3.63
2022-08-26T18:38:55.835Z,6.20
2022-08-26T18:41:22.861Z,6.38
2022-08-26T18:43:50.594Z,10.38
2022-08-26T18:46:17.473Z,7.20
2022-08-26T18:48:44.187Z,6.20
2022-08-26T18:51:16.539Z,6.55
2022-08-26T18:53:46.010Z,10.82
2022-08-26T18:56:15.363Z,8.95
2022-08-26T18:58:44.682Z,8.55
2022-08-26T19:01:11.840Z,11.70
2022-08-26T19:03:38.502Z,9.05
2022-08-26T19:06:05.381Z,7.53
2022-08-26T19:08:32.018Z,8.60
2022-08-26T19:10:59.371Z,8.63
2022-08-26T19:13:26.805Z,8.20
2022-08-26T19:15:53.480Z,9.00
2022-08-26T19:18:20.217Z,8.27
2022-08-26T19:20:47.014Z,7.63
2022-08-26T19:23:28.528Z,11.05
2022-08-26T19:25:57.833Z,10.07
2022-08-26T19:28:24.534Z,8.48
2022-08-26T19:30:53.091Z,9.15
2022-08-26T19:33:20.051Z,8.73
2022-08-26T19:35:46.587Z,6.65
2022-08-26T19:38:13.353Z,10.52
2022-08-26T19:40:40.063Z,6.70
2022-08-26T19:43:06.701Z,6.60
2022-08-26T19:45:33.679Z,6.15
2022-08-26T19:48:00.448Z,9.20
2022-08-26T19:50:27.813Z,10.05
2022-08-26T19:52:54.467Z,7.97
2022-08-26T19:55:21.755Z,7.10
2022-08-26T19:57:48.843Z,5.07
2022-08-26T20:00:16.009Z,6.78
2022-08-26T20:02:42.787Z,8.63
2022-08-26T20:05:10.171Z,8.00
2022-08-26T20:07:36.855Z,7.25
2022-08-26T20:10:04.325Z,7.65
2022-08-26T20:12:33.493Z,10.32
2022-08-26T20:15:00.588Z,11.27
2022-08-26T20:17:27.228Z,5.93
2022-08-26T20:20:16.065Z,6.82
2022-08-26T20:22:59.039Z,5.18
2022-08-26T20:25:25.655Z,6.90
2022-08-26T20:27:52.316Z,8.27
2022-08-26T20:30:18.956Z,8.50
2022-08-26T20:32:45.660Z,6.43
2022-08-26T20:35:12.871Z,12.25
2022-08-26T20:37:39.798Z,7.30
2022-08-26T20:40:09.510Z,6.55
2022-08-26T20:42:36.143Z,11.52
2022-08-26T20:45:03.496Z,8.52
2022-08-26T20:47:30.135Z,6.68
2022-08-26T20:49:56.775Z,7.28
2022-08-26T20:52:23.582Z,7.18
2022-08-26T20:54:50.386Z,7.68
2022-08-26T20:57:17.138Z,8.07
2022-08-26T20:59:43.854Z,7.80
2022-08-26T21:02:10.489Z,11.05
2022-08-26T21:04:39.196Z,9.93
2022-08-26T21:07:05.904Z,6.65
2022-08-26T21:09:35.142Z,7.07
2022-08-26T21:12:02.081Z,6.00
2022-08-26T21:14:28.819Z,11.93
2022-08-26T21:16:56.618Z,6.05
2022-08-26T21:19:23.405Z,7.60
2022-08-26T21:21:54.300Z,10.25
2022-08-26T21:24:23.547Z,13.73
2022-08-26T21:26:50.272Z,10.80
2022-08-26T21:29:16.949Z,11.52
2022-08-26T21:31:46.349Z,9.30
2022-08-26T21:34:14.259Z,11.35
2022-08-26T21:36:40.929Z,9.43
2022-08-26T21:39:11.448Z,9.45
2022-08-26T21:41:38.785Z,7.60
2022-08-26T21:44:05.456Z,8.23
2022-08-26T21:46:37.563Z,8.15
2022-08-26T21:49:05.078Z,6.15
2022-08-26T21:51:34.479Z,6.95
2022-08-26T21:54:01.284Z,10.90
2022-08-26T21:56:30.294Z,9.48
2022-08-26T21:58:57.061Z,9.85
2022-08-26T22:01:24.170Z,11.35
2022-08-26T22:03:52.712Z,9.57
2022-08-26T22:06:21.175Z,7.47
2022-08-26T22:08:47.988Z,10.48
2022-08-26T22:11:14.639Z,11.15
2022-08-26T22:13:41.552Z,9.00
2022-08-26T22:16:08.356Z,9.07
2022-08-26T22:18:35.409Z,10.25
2022-08-26T22:21:03.896Z,9.38
2022-08-26T22:23:30.692Z,6.57
2022-08-26T22:25:57.463Z,9.75
2022-08-26T22:28:24.115Z,8.05
2022-08-26T22:30:50.961Z,9.70
2022-08-26T22:33:17.757Z,8.98
2022-08-26T22:35:45.462Z,11.70
2022-08-26T22:38:12.122Z,9.38
2022-08-26T22:40:42.451Z,14.02
2022-08-26T22:43:09.121Z,9.43
2022-08-26T22:45:39.881Z,10.57
2022-08-26T22:48:06.607Z,7.95
2022-08-26T22:50:33.272Z,10.43
2022-08-26T22:52:59.905Z,10.75
2022-08-26T22:55:26.824Z,7.00
2022-08-26T22:57:53.425Z,8.80
2022-08-26T23:00:20.034Z,8.45
2022-08-26T23:02:58.905Z,8.68
2022-08-26T23:05:25.515Z,8.60
2022-08-26T23:07:52.270Z,6.90
2022-08-26T23:10:18.911Z,10.20
2022-08-26T23:12:45.621Z,10.48
2022-08-26T23:15:12.389Z,10.60
2022-08-26T23:17:39.029Z,7.50
2022-08-26T23:20:06.354Z,10.07
2022-08-26T23:22:32.935Z,9.18
2022-08-26T23:25:02.293Z,10.57
2022-08-26T23:27:34.995Z,15.35
2022-08-26T23:30:01.778Z,9.15
2022-08-26T23:32:28.453Z,10.18
2022-08-26T23:34:59.774Z,12.30
2022-08-26T23:37:27.714Z,7.82
2022-08-26T23:39:55.481Z,9.07
2022-08-26T23:42:23.044Z,7.00
2022-08-26T23:44:49.826Z,7.68
2022-08-26T23:47:16.805Z,10.15
2022-08-26T23:49:43.439Z,8.60
2022-08-26T23:52:28.672Z,8.15
2022-08-26T23:54:55.310Z,9.57
2022-08-26T23:57:22.905Z,11.20
2022-08-26T23:59:49.657Z,16.15
